Vallejo, CA (94590)

2:31 AM PST on November 26, 2014 (GMT -0800)
Vallejo Sanitation and Flood | Change Station
CLOSE
Current Station
Personal Weather Station
Location: Vallejo, CA
Elevation: 36 ft
Nearby Weather Stations
Active Advisory: Special Statement

Elev 36 ft 38.09 °N, 122.25 °W | Updated 7 minutes ago

Clear
Clear
53.8 °F
Feels Like 53.8 °F
N
0.0
Wind Variable Wind from East
Gusts 2.0 mph

Today
High -- | Low -- °F
--% Chance of Precip.
Yesterday
High -- | Low -- °F
Precip. -- in
7:01 AM 4:50 PM
Waxing Crescent, 18% visible
Pressure 30.30 in
Visibility 10.0 miles
Clouds Clear
Dew Point 46 °F
Humidity 75%
Rainfall 0.00 in
Snow Depth Not available.
UV 0.0 out of 12
Pollen 2.70 out of 12
Air Quality Not available.
Flu Activity Not available.
METAR KAPC 260954Z AUTO 02005KT 10SM CLR 07/06 A3032 RMK AO2 SLP259 T00670056

More Conditions Fewer Conditions

Pressure 30.30 in
Visibility 10.0 miles
Clouds Clear
Dew Point 46 °F
Humidity 75%
Rainfall 0.00 in
Snow Depth Not available.
UV 0.0 out of 12
Pollen 2.70 out of 12
Air Quality Not available.
Flu Activity Not available.
METAR KAPC 260954Z AUTO 02005KT 10SM CLR 07/06 A3032 RMK AO2 SLP259 T00670056

More Conditions Fewer Conditions

10-Day Weather Forecast

Almanac

Astronomy

Nov. 26, 2014 Rise Set
Actual Time
Civil Twilight
Nautical Twilight
Astronomical Twilight
Moon
Length of Visible Light
Length of Day
Tomorrow will be .
, % of the Moon is Illuminated

Today's Extremes

State Highs State Lows

Community

WunderPhotos

Upload Photos

1,773,708 photos uploaded!

WunderBlogs® & News

Nearby

Air Quality

  Air Quality AQ Index Pollutant
Not available.

Snow Depth

Station Depth Elevation

Earthquake Activity

City Distance Mag. Time & Date
Minimum magnitude displayed is 2.5.

Coastal Water Temperatures

Place Temperature

Nearby Weather Stations